createdAt,value
2023-03-16T00:01:27.409Z,5.55
2023-03-16T00:03:54.126Z,6.38
2023-03-16T00:06:20.878Z,6.90
2023-03-16T00:08:47.604Z,6.00
2023-03-16T00:11:14.346Z,7.50
2023-03-16T00:13:42.825Z,5.72
2023-03-16T00:16:09.661Z,6.70
2023-03-16T00:18:39.152Z,6.57
2023-03-16T00:21:06.783Z,5.28
2023-03-16T00:23:35.848Z,6.00
2023-03-16T00:26:05.761Z,5.47
2023-03-16T00:28:35.263Z,5.72
2023-03-16T00:31:07.166Z,6.10
2023-03-16T00:33:36.670Z,6.13
2023-03-16T00:36:08.145Z,7.07
2023-03-16T00:38:37.128Z,5.65
2023-03-16T00:41:06.225Z,6.55
2023-03-16T00:43:40.886Z,6.75
2023-03-16T00:46:13.788Z,5.53
2023-03-16T00:48:42.775Z,6.03
2023-03-16T00:51:16.309Z,5.50
2023-03-16T00:53:44.742Z,5.30
2023-03-16T00:56:12.748Z,6.03
2023-03-16T00:58:43.197Z,5.85
2023-03-16T01:01:13.881Z,5.65
2023-03-16T01:03:41.105Z,5.70
2023-03-16T01:06:15.190Z,5.88
2023-03-16T01:08:42.097Z,6.10
2023-03-16T01:11:12.395Z,6.05
2023-03-16T01:13:39.796Z,5.57
2023-03-16T01:16:07.060Z,5.80
2023-03-16T01:18:34.285Z,6.20
2023-03-16T01:21:03.543Z,7.65
2023-03-16T01:23:31.410Z,6.43
2023-03-16T01:25:59.299Z,6.03
2023-03-16T01:28:29.457Z,6.90
2023-03-16T01:31:00.725Z,6.60
2023-03-16T01:33:28.950Z,6.97
2023-03-16T01:35:57.607Z,6.40
2023-03-16T01:38:24.937Z,5.68
2023-03-16T01:40:53.917Z,6.18
2023-03-16T01:43:25.878Z,6.22
2023-03-16T01:46:05.130Z,6.35
2023-03-16T01:48:39.975Z,6.93
2023-03-16T01:51:15.878Z,6.80
2023-03-16T01:53:45.942Z,6.22
2023-03-16T01:56:18.522Z,6.55
2023-03-16T01:58:46.922Z,7.00
2023-03-16T02:01:14.481Z,6.75
2023-03-16T02:03:44.276Z,7.35
2023-03-16T02:06:19.426Z,7.43
2023-03-16T02:08:49.484Z,7.57
2023-03-16T02:11:19.952Z,7.10
2023-03-16T02:13:47.206Z,7.32
2023-03-16T02:16:19.399Z,7.78
2023-03-16T02:18:51.511Z,7.80
2023-03-16T02:21:40.293Z,8.00
2023-03-16T02:24:07.338Z,7.57
2023-03-16T02:26:49.073Z,7.70
2023-03-16T02:29:54.145Z,8.25
2023-03-16T02:32:23.117Z,8.80
2023-03-16T02:34:50.003Z,8.38
2023-03-16T02:37:16.836Z,8.40
2023-03-16T02:39:46.244Z,7.85
2023-03-16T02:42:16.843Z,8.00
2023-03-16T02:44:48.548Z,8.30
2023-03-16T02:47:41.700Z,8.25
2023-03-16T02:50:12.495Z,7.82
2023-03-16T02:52:41.100Z,9.55
2023-03-16T02:55:08.993Z,7.97
2023-03-16T02:57:35.903Z,8.35
2023-03-16T03:00:11.513Z,8.93
2023-03-16T03:02:38.232Z,8.40
2023-03-16T03:05:05.242Z,8.60
2023-03-16T03:07:32.051Z,9.57
2023-03-16T03:09:59.114Z,9.60
2023-03-16T03:12:25.961Z,10.13
2023-03-16T03:14:52.652Z,9.60
2023-03-16T03:17:19.416Z,11.00
2023-03-16T03:19:46.671Z,9.80
2023-03-16T03:22:18.494Z,9.18
2023-03-16T03:24:45.419Z,8.90
2023-03-16T03:27:12.180Z,8.75
2023-03-16T03:29:38.880Z,9.68
2023-03-16T03:32:06.385Z,9.68
2023-03-16T03:34:33.081Z,8.57
2023-03-16T03:36:59.896Z,8.13
2023-03-16T03:39:26.617Z,9.52
2023-03-16T03:41:56.341Z,9.40
2023-03-16T03:44:23.633Z,8.85
2023-03-16T03:46:51.643Z,9.48
2023-03-16T03:49:18.380Z,8.50
2023-03-16T03:51:45.144Z,10.02
2023-03-16T03:54:11.853Z,9.07
2023-03-16T03:56:38.635Z,8.77
2023-03-16T03:59:05.659Z,10.10
2023-03-16T04:01:32.440Z,9.02
2023-03-16T04:03:59.187Z,9.35
2023-03-16T04:06:25.991Z,12.38
2023-03-16T04:08:54.298Z,8.80
2023-03-16T04:11:21.838Z,10.43
2023-03-16T04:13:50.964Z,9.55
2023-03-16T04:16:17.855Z,10.32
2023-03-16T04:18:46.335Z,9.80
2023-03-16T04:21:16.697Z,9.52
2023-03-16T04:23:44.450Z,10.38
2023-03-16T04:26:11.254Z,9.82
2023-03-16T04:28:38.010Z,10.82
2023-03-16T04:31:09.211Z,10.55
2023-03-16T04:33:37.687Z,11.57
2023-03-16T04:36:06.634Z,11.20
2023-03-16T04:38:34.306Z,11.00
2023-03-16T04:41:02.555Z,10.88
2023-03-16T04:43:30.226Z,12.07
2023-03-16T04:45:56.981Z,11.57
2023-03-16T04:48:24.002Z,10.80
2023-03-16T04:50:51.463Z,9.13
2023-03-16T04:53:18.241Z,9.60
2023-03-16T04:55:46.295Z,10.48
2023-03-16T04:58:13.875Z,11.48
2023-03-16T05:00:41.616Z,10.90
2023-03-16T05:03:10.420Z,9.95
2023-03-16T05:05:40.456Z,9.45
2023-03-16T05:08:07.523Z,11.95
2023-03-16T05:10:34.998Z,12.07
2023-03-16T05:13:01.859Z,12.00
2023-03-16T05:15:28.730Z,11.48
2023-03-16T05:17:58.393Z,10.55
2023-03-16T05:20:25.576Z,12.32
2023-03-16T05:22:52.409Z,12.68
2023-03-16T05:25:20.397Z,10.55
2023-03-16T05:27:57.019Z,11.85
2023-03-16T05:30:23.873Z,12.50
2023-03-16T05:32:51.431Z,13.32
2023-03-16T05:35:25.650Z,12.10
2023-03-16T05:37:52.440Z,12.73
2023-03-16T05:40:19.287Z,11.20
2023-03-16T05:42:54.512Z,11.90
2023-03-16T05:45:21.265Z,11.73
2023-03-16T05:47:47.987Z,11.90
2023-03-16T05:50:17.081Z,13.13
2023-03-16T05:52:45.009Z,12.57
2023-03-16T05:55:14.641Z,12.05
2023-03-16T05:57:41.719Z,12.45
2023-03-16T06:00:16.877Z,13.98
2023-03-16T06:02:49.076Z,12.15
2023-03-16T06:05:17.888Z,13.75
2023-03-16T06:07:45.552Z,13.93
2023-03-16T06:10:13.066Z,12.05
2023-03-16T06:12:40.357Z,13.05
2023-03-16T06:15:09.153Z,12.40
2023-03-16T06:17:37.101Z,14.43
2023-03-16T06:20:11.350Z,13.25
2023-03-16T06:22:39.841Z,12.45
2023-03-16T06:25:07.559Z,14.00
2023-03-16T06:27:34.475Z,13.93
2023-03-16T06:30:01.640Z,14.63
2023-03-16T06:32:28.381Z,13.23
2023-03-16T06:34:55.273Z,11.63
2023-03-16T06:37:22.071Z,13.45
2023-03-16T06:39:48.777Z,12.80
2023-03-16T06:42:15.585Z,13.88
2023-03-16T06:44:42.772Z,15.65
2023-03-16T06:47:10.459Z,15.45
2023-03-16T06:49:37.399Z,13.35
2023-03-16T06:52:04.313Z,10.95
2023-03-16T06:54:34.209Z,13.60
2023-03-16T06:57:01.623Z,14.38
2023-03-16T06:59:28.516Z,14.63
2023-03-16T07:01:55.371Z,21.05
2023-03-16T07:04:22.176Z,22.25
2023-03-16T07:06:48.984Z,15.02
2023-03-16T07:09:15.727Z,12.85
2023-03-16T07:11:42.662Z,14.02
2023-03-16T07:14:09.371Z,13.32
2023-03-16T07:16:36.259Z,11.07
2023-03-16T07:19:03.298Z,14.93
2023-03-16T07:21:32.142Z,12.85
2023-03-16T07:23:58.949Z,13.55
2023-03-16T07:26:25.774Z,12.45
2023-03-16T07:28:52.459Z,13.63
2023-03-16T07:31:19.282Z,12.85
2023-03-16T07:33:46.058Z,10.13
2023-03-16T07:36:12.847Z,12.65
2023-03-16T07:38:40.031Z,12.77
2023-03-16T07:41:06.766Z,13.93
2023-03-16T07:43:33.623Z,12.70
2023-03-16T07:46:01.492Z,13.60
2023-03-16T07:48:28.407Z,11.90
2023-03-16T07:50:55.107Z,10.70
2023-03-16T07:53:21.802Z,13.00
2023-03-16T07:55:48.556Z,13.10
2023-03-16T07:58:15.386Z,12.82
2023-03-16T08:00:42.591Z,10.35
2023-03-16T08:03:09.704Z,10.45
2023-03-16T08:05:36.617Z,11.00
2023-03-16T08:08:03.434Z,11.82
2023-03-16T08:10:31.256Z,10.65
2023-03-16T08:12:58.357Z,8.43
2023-03-16T08:15:25.142Z,8.88
2023-03-16T08:17:52.668Z,10.32
2023-03-16T08:20:19.640Z,10.23
2023-03-16T08:22:46.878Z,10.18
2023-03-16T08:25:14.613Z,9.55
2023-03-16T08:27:43.050Z,10.50
2023-03-16T08:30:11.950Z,9.70
2023-03-16T08:32:40.048Z,8.10
2023-03-16T08:35:14.081Z,9.93
2023-03-16T08:37:41.773Z,9.37
2023-03-16T08:40:29.887Z,10.43
2023-03-16T08:42:56.829Z,10.73
2023-03-16T08:45:24.314Z,8.93
2023-03-16T08:47:51.179Z,10.68
2023-03-16T08:50:19.648Z,8.63
2023-03-16T08:52:49.030Z,8.55
2023-03-16T08:55:16.267Z,8.43
2023-03-16T08:57:45.172Z,9.83
2023-03-16T09:00:14.151Z,9.33
2023-03-16T09:02:42.319Z,9.90
2023-03-16T09:05:11.636Z,8.10
2023-03-16T09:07:39.742Z,9.20
2023-03-16T09:10:13.573Z,8.53
2023-03-16T09:12:40.971Z,9.40
2023-03-16T09:15:10.214Z,8.67
2023-03-16T09:17:37.127Z,9.53
2023-03-16T09:20:19.517Z,8.80
2023-03-16T09:22:48.653Z,9.63
2023-03-16T09:25:15.582Z,8.87
2023-03-16T09:27:42.756Z,7.50
2023-03-16T09:30:10.440Z,8.77
2023-03-16T09:32:37.544Z,10.37
2023-03-16T09:35:06.287Z,7.70
2023-03-16T09:37:44.621Z,8.87
2023-03-16T09:40:21.659Z,8.27
2023-03-16T09:43:10.909Z,8.80
2023-03-16T09:46:16.519Z,8.20
2023-03-16T09:48:43.891Z,8.00
2023-03-16T09:51:22.988Z,8.47
2023-03-16T09:53:56.609Z,8.40
2023-03-16T09:56:33.522Z,9.17
2023-03-16T09:59:00.574Z,9.47
2023-03-16T10:01:48.220Z,8.80
2023-03-16T10:04:33.592Z,9.20
2023-03-16T10:07:15.484Z,6.57
2023-03-16T10:10:05.412Z,6.53
2023-03-16T10:12:41.464Z,7.70
2023-03-16T10:15:17.714Z,8.37
2023-03-16T10:18:15.255Z,7.50
2023-03-16T10:20:42.325Z,7.53
2023-03-16T10:23:20.788Z,7.73
2023-03-16T10:25:49.892Z,7.87
2023-03-16T10:28:23.301Z,7.20
2023-03-16T10:30:54.527Z,7.20
2023-03-16T10:33:36.620Z,6.93
2023-03-16T10:36:12.471Z,8.30
2023-03-16T10:38:58.845Z,7.70
2023-03-16T10:41:37.327Z,6.07
2023-03-16T10:44:15.478Z,5.13
2023-03-16T10:46:48.744Z,5.63
2023-03-16T10:49:25.895Z,5.27
2023-03-16T10:51:57.144Z,4.23
2023-03-16T10:54:34.417Z,5.27
2023-03-16T10:57:13.856Z,5.30
2023-03-16T10:59:40.595Z,5.40
2023-03-16T11:02:31.915Z,5.70
2023-03-16T11:04:58.984Z,4.93
2023-03-16T11:07:25.740Z,3.63
2023-03-16T11:09:54.743Z,4.07
2023-03-16T11:12:28.879Z,3.60
2023-03-16T11:15:02.508Z,6.00
2023-03-16T11:17:38.212Z,4.93
2023-03-16T11:20:17.530Z,4.97
2023-03-16T11:22:47.183Z,6.10
2023-03-16T11:25:17.141Z,4.37
2023-03-16T11:28:12.082Z,4.77
2023-03-16T11:30:44.892Z,5.13
2023-03-16T11:33:17.074Z,6.40
2023-03-16T11:36:00.397Z,5.07
2023-03-16T11:38:47.510Z,4.60
2023-03-16T11:41:45.757Z,5.80
2023-03-16T11:44:44.725Z,4.00
2023-03-16T11:47:38.582Z,4.03
2023-03-16T11:50:14.762Z,4.03
2023-03-16T11:53:18.306Z,4.97
2023-03-16T11:56:09.737Z,5.33
2023-03-16T11:59:00.676Z,5.70
2023-03-16T12:02:00.881Z,4.73
2023-03-16T12:05:04.508Z,6.00
2023-03-16T12:08:12.592Z,4.90
2023-03-16T12:10:54.710Z,4.00
2023-03-16T12:13:36.058Z,5.87
2023-03-16T12:16:16.998Z,4.50
2023-03-16T12:19:25.686Z,4.50
2023-03-16T12:22:18.585Z,4.20
2023-03-16T12:24:47.089Z,4.67
2023-03-16T12:27:36.617Z,5.70
2023-03-16T12:30:13.598Z,4.77
2023-03-16T12:32:50.384Z,4.83
2023-03-16T12:35:35.984Z,4.07
2023-03-16T12:38:37.383Z,4.13
2023-03-16T12:41:39.103Z,4.70
2023-03-16T12:44:21.128Z,5.20
2023-03-16T12:47:24.000Z,3.50
2023-03-16T12:49:52.078Z,4.70
2023-03-16T12:52:18.863Z,3.33
2023-03-16T12:55:15.482Z,4.13
2023-03-16T12:57:43.886Z,3.60
2023-03-16T13:00:13.183Z,5.00
2023-03-16T13:02:45.971Z,4.47
2023-03-16T13:05:19.310Z,4.40
2023-03-16T13:07:52.362Z,3.93
2023-03-16T13:10:21.050Z,4.60
2023-03-16T13:12:48.564Z,5.27
2023-03-16T13:15:22.165Z,4.20
2023-03-16T13:18:02.388Z,3.40
2023-03-16T13:20:34.990Z,3.57
2023-03-16T13:23:17.293Z,3.40
2023-03-16T13:26:05.796Z,3.83
2023-03-16T13:28:36.658Z,3.70
2023-03-16T13:31:04.858Z,3.53
2023-03-16T13:33:36.948Z,4.13
2023-03-16T13:36:06.394Z,4.30
2023-03-16T13:38:33.316Z,4.93
2023-03-16T13:41:11.714Z,4.40
2023-03-16T13:43:43.808Z,4.87
2023-03-16T13:46:18.564Z,4.60
2023-03-16T13:48:48.219Z,4.33
2023-03-16T13:51:18.213Z,3.30
2023-03-16T13:53:45.507Z,3.23
2023-03-16T13:56:18.802Z,4.47
2023-03-16T13:58:48.893Z,4.93
2023-03-16T14:01:26.108Z,4.43
2023-03-16T14:03:55.470Z,4.90
2023-03-16T14:06:31.415Z,3.97
2023-03-16T14:09:04.513Z,5.07
2023-03-16T14:11:31.469Z,3.87
2023-03-16T14:14:00.545Z,3.40
2023-03-16T14:16:29.811Z,4.60
2023-03-16T14:19:07.940Z,4.37
2023-03-16T14:21:35.197Z,3.43
2023-03-16T14:24:04.852Z,4.80
2023-03-16T14:26:48.354Z,5.47
2023-03-16T14:29:31.480Z,4.33
2023-03-16T14:32:00.258Z,4.40
2023-03-16T14:34:31.244Z,3.47
2023-03-16T14:37:13.051Z,3.80
2023-03-16T14:39:43.554Z,3.80
2023-03-16T14:42:25.864Z,5.40
2023-03-16T14:44:52.802Z,4.20
2023-03-16T14:47:26.183Z,4.10
2023-03-16T14:49:53.366Z,3.80
2023-03-16T14:52:40.648Z,4.63
2023-03-16T14:55:14.663Z,4.60
2023-03-16T14:57:42.891Z,4.10
2023-03-16T15:00:12.670Z,3.33
2023-03-16T15:02:42.158Z,5.20
2023-03-16T15:05:13.506Z,2.67
2023-03-16T15:07:45.337Z,4.10
2023-03-16T15:10:25.474Z,4.30
2023-03-16T15:13:04.145Z,4.73
2023-03-16T15:15:31.755Z,2.50
2023-03-16T15:17:59.256Z,4.47
2023-03-16T15:20:31.780Z,4.20
2023-03-16T15:22:59.375Z,3.60
2023-03-16T15:25:37.251Z,3.87
2023-03-16T15:28:21.517Z,4.37
2023-03-16T15:30:52.585Z,2.77
2023-03-16T15:33:20.198Z,3.90
2023-03-16T15:35:49.428Z,5.07
2023-03-16T15:38:21.546Z,4.43
2023-03-16T15:40:51.238Z,4.73
2023-03-16T15:43:20.480Z,5.30
2023-03-16T15:45:47.889Z,4.67
2023-03-16T15:48:16.371Z,4.60
2023-03-16T15:50:56.507Z,5.23
2023-03-16T15:53:34.112Z,5.10
2023-03-16T15:56:06.582Z,5.87
2023-03-16T15:58:35.244Z,4.90
2023-03-16T16:01:03.915Z,6.07
2023-03-16T16:03:31.023Z,4.70
2023-03-16T16:05:57.783Z,4.80
2023-03-16T16:08:24.730Z,5.40
2023-03-16T16:10:53.433Z,4.47
2023-03-16T16:13:37.425Z,3.80
2023-03-16T16:16:13.929Z,4.50
2023-03-16T16:18:41.279Z,4.70
2023-03-16T16:21:15.964Z,4.53
2023-03-16T16:23:43.043Z,5.27
2023-03-16T16:26:48.918Z,4.23
2023-03-16T16:29:30.653Z,4.60
2023-03-16T16:31:57.568Z,3.87
2023-03-16T16:34:25.365Z,4.80
2023-03-16T16:36:56.009Z,5.20
2023-03-16T16:39:23.351Z,5.07
2023-03-16T16:41:52.195Z,4.63
2023-03-16T16:44:23.575Z,4.73
2023-03-16T16:46:52.076Z,3.77
2023-03-16T16:49:20.188Z,4.47
2023-03-16T16:51:47.505Z,4.03
2023-03-16T16:54:23.335Z,4.43
2023-03-16T16:56:53.117Z,4.40
2023-03-16T16:59:26.112Z,4.00
2023-03-16T17:01:59.265Z,3.90
2023-03-16T17:04:29.317Z,3.40
2023-03-16T17:06:59.761Z,5.03
2023-03-16T17:09:28.585Z,4.50
2023-03-16T17:11:58.741Z,3.63
2023-03-16T17:14:28.288Z,4.73
2023-03-16T17:16:56.165Z,5.47
2023-03-16T17:19:28.042Z,6.10
2023-03-16T17:21:57.428Z,6.50
2023-03-16T17:24:24.904Z,4.63
2023-03-16T17:26:55.081Z,4.70
2023-03-16T17:29:31.376Z,5.10
2023-03-16T17:32:01.478Z,4.90
2023-03-16T17:34:29.587Z,5.10
2023-03-16T17:36:56.818Z,5.10
2023-03-16T17:39:29.033Z,5.40
2023-03-16T17:42:05.164Z,5.27
2023-03-16T17:44:40.020Z,7.63
2023-03-16T17:47:13.183Z,5.73
2023-03-16T17:49:40.343Z,6.00
2023-03-16T17:52:23.509Z,6.40
2023-03-16T17:54:52.149Z,6.30
2023-03-16T17:57:24.482Z,6.00
2023-03-16T17:59:52.145Z,6.97
2023-03-16T18:02:49.742Z,6.20
2023-03-16T18:05:22.146Z,6.30
2023-03-16T18:07:49.501Z,6.00
2023-03-16T18:10:20.202Z,6.63
2023-03-16T18:12:51.069Z,7.37
2023-03-16T18:15:18.939Z,7.23
2023-03-16T18:17:46.467Z,8.60
2023-03-16T18:20:22.849Z,8.47
2023-03-16T18:22:50.572Z,8.17
2023-03-16T18:25:42.055Z,7.40
2023-03-16T18:28:10.193Z,7.73
2023-03-16T18:30:38.692Z,6.17
2023-03-16T18:33:22.149Z,7.30
2023-03-16T18:35:49.833Z,6.00
2023-03-16T18:38:37.415Z,6.63
2023-03-16T18:41:19.603Z,7.30
2023-03-16T18:43:47.318Z,6.70
2023-03-16T18:46:32.515Z,6.30
2023-03-16T18:49:02.189Z,6.60
2023-03-16T18:51:30.264Z,7.70
2023-03-16T18:53:57.586Z,6.30
2023-03-16T18:56:27.147Z,6.73
2023-03-16T18:58:55.540Z,6.23
2023-03-16T19:01:32.250Z,7.13
2023-03-16T19:04:01.635Z,5.90
2023-03-16T19:06:31.730Z,6.90
2023-03-16T19:09:04.093Z,6.30
2023-03-16T19:11:31.433Z,6.53
2023-03-16T19:13:58.246Z,6.27
2023-03-16T19:16:25.078Z,5.77
2023-03-16T19:18:51.983Z,5.97
2023-03-16T19:21:22.904Z,5.37
2023-03-16T19:24:02.978Z,5.13
2023-03-16T19:26:33.199Z,7.00
2023-03-16T19:29:01.572Z,6.00
2023-03-16T19:31:30.727Z,6.47
2023-03-16T19:33:58.558Z,6.72
2023-03-16T19:36:33.787Z,6.57
2023-03-16T19:39:00.775Z,5.50
2023-03-16T19:41:31.278Z,7.30
2023-03-16T19:44:05.642Z,6.10
2023-03-16T19:46:32.330Z,5.88
2023-03-16T19:48:59.187Z,7.17
2023-03-16T19:51:29.038Z,5.63
2023-03-16T19:53:56.197Z,6.30
2023-03-16T19:56:25.590Z,6.10
2023-03-16T19:58:54.554Z,5.93
2023-03-16T20:01:32.145Z,5.60
2023-03-16T20:03:59.751Z,5.50
2023-03-16T20:06:27.334Z,6.50
2023-03-16T20:08:54.121Z,6.40
2023-03-16T20:11:29.852Z,4.93
2023-03-16T20:13:57.984Z,6.37
2023-03-16T20:16:28.394Z,6.13
2023-03-16T20:18:57.933Z,6.07
2023-03-16T20:21:24.869Z,5.90
2023-03-16T20:23:53.129Z,7.38
2023-03-16T20:26:32.754Z,6.25
2023-03-16T20:29:00.962Z,6.50
2023-03-16T20:31:31.347Z,7.07
2023-03-16T20:33:58.860Z,5.07
2023-03-16T20:36:26.422Z,5.38
2023-03-16T20:38:53.245Z,5.43
2023-03-16T20:41:27.681Z,5.10
2023-03-16T20:43:56.965Z,6.10
2023-03-16T20:46:27.855Z,6.70
2023-03-16T20:48:55.731Z,6.60
2023-03-16T20:51:23.518Z,6.50
2023-03-16T20:53:50.645Z,5.60
2023-03-16T20:56:23.383Z,7.07
2023-03-16T20:58:51.227Z,7.23
2023-03-16T21:01:21.610Z,7.10
2023-03-16T21:03:50.419Z,7.13
2023-03-16T21:06:32.877Z,5.53
2023-03-16T21:09:03.326Z,5.47
2023-03-16T21:11:39.340Z,5.90
2023-03-16T21:14:13.338Z,5.70
2023-03-16T21:16:40.406Z,6.37
2023-03-16T21:19:15.603Z,6.20
2023-03-16T21:21:42.433Z,5.75
2023-03-16T21:24:09.307Z,6.53
2023-03-16T21:26:37.428Z,6.32
2023-03-16T21:29:08.295Z,6.50
2023-03-16T21:31:35.473Z,6.20
2023-03-16T21:34:03.594Z,6.40
2023-03-16T21:36:30.462Z,6.05
2023-03-16T21:38:57.287Z,6.45
2023-03-16T21:41:24.050Z,6.43
2023-03-16T21:43:51.898Z,6.43
2023-03-16T21:46:25.573Z,6.43
2023-03-16T21:48:55.752Z,5.95
2023-03-16T21:51:29.099Z,6.40
2023-03-16T21:53:56.010Z,6.00
2023-03-16T21:56:25.898Z,5.60
2023-03-16T21:58:53.724Z,5.93
2023-03-16T22:01:32.289Z,5.95
2023-03-16T22:04:04.478Z,6.03
2023-03-16T22:06:31.554Z,6.57
2023-03-16T22:08:59.829Z,7.30
2023-03-16T22:11:28.815Z,6.07
2023-03-16T22:13:57.426Z,5.85
2023-03-16T22:16:27.940Z,5.95
2023-03-16T22:18:56.951Z,5.43
2023-03-16T22:21:29.523Z,5.30
2023-03-16T22:23:57.776Z,5.90
2023-03-16T22:26:25.035Z,6.28
2023-03-16T22:28:52.661Z,5.63
2023-03-16T22:31:47.026Z,6.50
2023-03-16T22:34:42.105Z,7.30
2023-03-16T22:37:11.012Z,6.50
2023-03-16T22:39:39.895Z,6.63
2023-03-16T22:42:32.675Z,6.35
2023-03-16T22:44:59.874Z,6.95
2023-03-16T22:47:29.165Z,8.15
2023-03-16T22:49:56.042Z,7.38
2023-03-16T22:52:29.397Z,6.20
2023-03-16T22:54:57.674Z,6.60
2023-03-16T22:57:24.917Z,6.53
2023-03-16T22:59:52.718Z,6.35
2023-03-16T23:02:24.253Z,6.32
2023-03-16T23:04:51.150Z,6.75
2023-03-16T23:07:18.253Z,7.30
2023-03-16T23:09:45.700Z,5.07
2023-03-16T23:12:20.469Z,6.03
2023-03-16T23:14:47.725Z,6.88
2023-03-16T23:17:20.120Z,6.53
2023-03-16T23:19:48.110Z,6.60
2023-03-16T23:22:15.467Z,7.20
2023-03-16T23:24:42.509Z,6.10
2023-03-16T23:27:22.271Z,6.95
2023-03-16T23:29:49.502Z,6.30
2023-03-16T23:32:17.166Z,6.63
2023-03-16T23:34:44.043Z,6.55
2023-03-16T23:37:11.371Z,6.25
2023-03-16T23:39:38.156Z,7.25
2023-03-16T23:42:05.483Z,7.25
2023-03-16T23:44:32.484Z,7.47
2023-03-16T23:47:00.585Z,7.18
2023-03-16T23:49:32.880Z,7.20
2023-03-16T23:52:01.583Z,6.65
2023-03-16T23:54:31.333Z,6.88
2023-03-16T23:56:58.183Z,6.20
2023-03-16T23:59:26.672Z,5.68
